sensor_id;sensor_type;location;lat;lon;timestamp;P1;durP1;ratioP1;P2;durP2;ratioP2
51718;SDS011;37795;53.236;5.704;2023-06-26T00:02:16;0.38;;;0.38;;
51718;SDS011;37795;53.236;5.704;2023-06-26T00:04:42;0.65;;;0.55;;
51718;SDS011;37795;53.236;5.704;2023-06-26T00:07:09;0.40;;;0.40;;
51718;SDS011;37795;53.236;5.704;2023-06-26T00:09:35;0.75;;;0.73;;
51718;SDS011;37795;53.236;5.704;2023-06-26T00:12:01;0.98;;;0.98;;
51718;SDS011;37795;53.236;5.704;2023-06-26T00:14:26;0.45;;;0.45;;
51718;SDS011;37795;53.236;5.704;2023-06-26T00:16:52;0.75;;;0.57;;
51718;SDS011;37795;53.236;5.704;2023-06-26T00:19:18;0.50;;;0.50;;
51718;SDS011;37795;53.236;5.704;2023-06-26T00:21:43;0.88;;;0.85;;
51718;SDS011;37795;53.236;5.704;2023-06-26T00:24:16;0.70;;;0.70;;
51718;SDS011;37795;53.236;5.704;2023-06-26T00:26:42;0.60;;;0.60;;
51718;SDS011;37795;53.236;5.704;2023-06-26T00:29:08;0.60;;;0.60;;
51718;SDS011;37795;53.236;5.704;2023-06-26T00:31:34;0.55;;;0.55;;
51718;SDS011;37795;53.236;5.704;2023-06-26T00:34:00;0.90;;;0.77;;
51718;SDS011;37795;53.236;5.704;2023-06-26T00:36:26;0.65;;;0.47;;
51718;SDS011;37795;53.236;5.704;2023-06-26T00:38:52;0.80;;;0.80;;
51718;SDS011;37795;53.236;5.704;2023-06-26T00:41:19;0.65;;;0.65;;
51718;SDS011;37795;53.236;5.704;2023-06-26T00:43:45;0.93;;;0.88;;
51718;SDS011;37795;53.236;5.704;2023-06-26T00:46:12;0.60;;;0.60;;
51718;SDS011;37795;53.236;5.704;2023-06-26T00:48:39;0.70;;;0.70;;
51718;SDS011;37795;53.236;5.704;2023-06-26T00:51:07;0.70;;;0.68;;
51718;SDS011;37795;53.236;5.704;2023-06-26T00:53:33;0.55;;;0.55;;
51718;SDS011;37795;53.236;5.704;2023-06-26T00:56:00;0.80;;;0.52;;
51718;SDS011;37795;53.236;5.704;2023-06-26T00:58:27;0.57;;;0.57;;
51718;SDS011;37795;53.236;5.704;2023-06-26T01:00:53;0.50;;;0.50;;
51718;SDS011;37795;53.236;5.704;2023-06-26T01:03:20;0.40;;;0.40;;
51718;SDS011;37795;53.236;5.704;2023-06-26T01:05:52;0.90;;;0.80;;
51718;SDS011;37795;53.236;5.704;2023-06-26T01:08:21;0.57;;;0.32;;
51718;SDS011;37795;53.236;5.704;2023-06-26T01:10:47;0.63;;;0.60;;
51718;SDS011;37795;53.236;5.704;2023-06-26T01:13:14;0.40;;;0.40;;
51718;SDS011;37795;53.236;5.704;2023-06-26T01:15:40;0.30;;;0.30;;
51718;SDS011;37795;53.236;5.704;2023-06-26T01:18:06;0.38;;;0.38;;
51718;SDS011;37795;53.236;5.704;2023-06-26T01:20:32;0.83;;;0.73;;
51718;SDS011;37795;53.236;5.704;2023-06-26T01:28:16;0.30;;;0.30;;
51718;SDS011;37795;53.236;5.704;2023-06-26T01:30:44;0.40;;;0.40;;
51718;SDS011;37795;53.236;5.704;2023-06-26T01:33:11;0.77;;;0.77;;
51718;SDS011;37795;53.236;5.704;2023-06-26T01:35:38;0.80;;;0.80;;
51718;SDS011;37795;53.236;5.704;2023-06-26T01:38:18;0.60;;;0.60;;
51718;SDS011;37795;53.236;5.704;2023-06-26T01:40:45;1.08;;;0.98;;
51718;SDS011;37795;53.236;5.704;2023-06-26T01:46:16;1.17;;;1.08;;
51718;SDS011;37795;53.236;5.704;2023-06-26T01:48:50;0.95;;;0.93;;
51718;SDS011;37795;53.236;5.704;2023-06-26T01:51:18;1.08;;;1.00;;
51718;SDS011;37795;53.236;5.704;2023-06-26T01:53:47;0.60;;;0.43;;
51718;SDS011;37795;53.236;5.704;2023-06-26T01:56:19;0.38;;;0.38;;
51718;SDS011;37795;53.236;5.704;2023-06-26T01:58:46;0.30;;;0.30;;
51718;SDS011;37795;53.236;5.704;2023-06-26T02:01:13;0.88;;;0.68;;
51718;SDS011;37795;53.236;5.704;2023-06-26T02:03:39;0.32;;;0.32;;
51718;SDS011;37795;53.236;5.704;2023-06-26T02:06:04;1.00;;;0.57;;
51718;SDS011;37795;53.236;5.704;2023-06-26T02:08:30;0.33;;;0.33;;
51718;SDS011;37795;53.236;5.704;2023-06-26T02:10:56;0.20;;;0.20;;
51718;SDS011;37795;53.236;5.704;2023-06-26T02:13:21;0.50;;;0.50;;
51718;SDS011;37795;53.236;5.704;2023-06-26T02:15:47;0.60;;;0.60;;
51718;SDS011;37795;53.236;5.704;2023-06-26T02:18:13;0.30;;;0.30;;
51718;SDS011;37795;53.236;5.704;2023-06-26T02:20:39;0.20;;;0.20;;
51718;SDS011;37795;53.236;5.704;2023-06-26T02:23:05;0.10;;;0.10;;
51718;SDS011;37795;53.236;5.704;2023-06-26T02:25:30;0.15;;;0.15;;
51718;SDS011;37795;53.236;5.704;2023-06-26T02:27:56;0.40;;;0.40;;
51718;SDS011;37795;53.236;5.704;2023-06-26T02:30:22;0.95;;;0.80;;
51718;SDS011;37795;53.236;5.704;2023-06-26T02:32:47;0.95;;;0.93;;
51718;SDS011;37795;53.236;5.704;2023-06-26T02:35:13;1.85;;;0.95;;
51718;SDS011;37795;53.236;5.704;2023-06-26T02:37:39;1.13;;;0.77;;
51718;SDS011;37795;53.236;5.704;2023-06-26T02:40:05;0.57;;;0.57;;
51718;SDS011;37795;53.236;5.704;2023-06-26T02:42:32;0.30;;;0.30;;
51718;SDS011;37795;53.236;5.704;2023-06-26T02:44:59;0.50;;;0.50;;
51718;SDS011;37795;53.236;5.704;2023-06-26T02:47:25;0.30;;;0.30;;
51718;SDS011;37795;53.236;5.704;2023-06-26T02:49:51;0.90;;;0.70;;
51718;SDS011;37795;53.236;5.704;2023-06-26T02:52:16;0.60;;;0.47;;
51718;SDS011;37795;53.236;5.704;2023-06-26T02:54:44;0.45;;;0.45;;
51718;SDS011;37795;53.236;5.704;2023-06-26T02:57:09;0.57;;;0.57;;
51718;SDS011;37795;53.236;5.704;2023-06-26T02:59:35;0.80;;;0.70;;
51718;SDS011;37795;53.236;5.704;2023-06-26T03:02:01;0.60;;;0.60;;
51718;SDS011;37795;53.236;5.704;2023-06-26T03:04:26;0.57;;;0.57;;
51718;SDS011;37795;53.236;5.704;2023-06-26T03:06:52;1.17;;;0.93;;
51718;SDS011;37795;53.236;5.704;2023-06-26T03:09:17;0.93;;;0.87;;
51718;SDS011;37795;53.236;5.704;2023-06-26T03:11:43;1.13;;;0.73;;
51718;SDS011;37795;53.236;5.704;2023-06-26T03:14:09;0.70;;;0.70;;
51718;SDS011;37795;53.236;5.704;2023-06-26T03:16:35;0.93;;;0.93;;
51718;SDS011;37795;53.236;5.704;2023-06-26T03:19:00;1.60;;;1.10;;
51718;SDS011;37795;53.236;5.704;2023-06-26T03:21:26;1.73;;;0.93;;
51718;SDS011;37795;53.236;5.704;2023-06-26T03:23:51;0.55;;;0.55;;
51718;SDS011;37795;53.236;5.704;2023-06-26T03:26:17;1.10;;;0.98;;
51718;SDS011;37795;53.236;5.704;2023-06-26T03:28:43;1.05;;;1.00;;
51718;SDS011;37795;53.236;5.704;2023-06-26T03:31:08;0.88;;;0.82;;
51718;SDS011;37795;53.236;5.704;2023-06-26T03:33:34;1.23;;;0.98;;
51718;SDS011;37795;53.236;5.704;2023-06-26T03:36:00;1.23;;;1.02;;
51718;SDS011;37795;53.236;5.704;2023-06-26T03:38:25;2.00;;;1.48;;
51718;SDS011;37795;53.236;5.704;2023-06-26T03:40:51;2.42;;;1.23;;
51718;SDS011;37795;53.236;5.704;2023-06-26T03:43:17;1.33;;;1.20;;
51718;SDS011;37795;53.236;5.704;2023-06-26T03:45:43;2.17;;;1.97;;
51718;SDS011;37795;53.236;5.704;2023-06-26T03:48:09;2.70;;;1.93;;
51718;SDS011;37795;53.236;5.704;2023-06-26T03:50:34;2.92;;;1.92;;
51718;SDS011;37795;53.236;5.704;2023-06-26T03:53:00;2.13;;;1.70;;
51718;SDS011;37795;53.236;5.704;2023-06-26T03:55:26;2.05;;;1.75;;
51718;SDS011;37795;53.236;5.704;2023-06-26T03:57:52;1.77;;;1.67;;
51718;SDS011;37795;53.236;5.704;2023-06-26T04:00:17;1.65;;;1.52;;
51718;SDS011;37795;53.236;5.704;2023-06-26T04:02:43;1.33;;;1.23;;
51718;SDS011;37795;53.236;5.704;2023-06-26T04:05:09;1.50;;;1.40;;
51718;SDS011;37795;53.236;5.704;2023-06-26T04:07:34;1.87;;;1.60;;
51718;SDS011;37795;53.236;5.704;2023-06-26T04:10:00;1.90;;;1.55;;
51718;SDS011;37795;53.236;5.704;2023-06-26T04:12:26;2.03;;;1.60;;
51718;SDS011;37795;53.236;5.704;2023-06-26T04:14:52;2.40;;;1.70;;
51718;SDS011;37795;53.236;5.704;2023-06-26T04:17:18;1.80;;;1.70;;
51718;SDS011;37795;53.236;5.704;2023-06-26T04:19:44;2.15;;;1.75;;
51718;SDS011;37795;53.236;5.704;2023-06-26T04:22:10;1.93;;;1.03;;
51718;SDS011;37795;53.236;5.704;2023-06-26T04:24:36;1.17;;;0.70;;
51718;SDS011;37795;53.236;5.704;2023-06-26T04:27:01;0.70;;;0.70;;
51718;SDS011;37795;53.236;5.704;2023-06-26T04:29:28;0.95;;;0.82;;
51718;SDS011;37795;53.236;5.704;2023-06-26T04:31:54;1.55;;;1.15;;
51718;SDS011;37795;53.236;5.704;2023-06-26T04:34:26;1.45;;;1.10;;
51718;SDS011;37795;53.236;5.704;2023-06-26T04:36:53;1.40;;;1.08;;
51718;SDS011;37795;53.236;5.704;2023-06-26T04:39:19;1.58;;;1.17;;
51718;SDS011;37795;53.236;5.704;2023-06-26T04:41:45;1.60;;;1.30;;
51718;SDS011;37795;53.236;5.704;2023-06-26T04:44:11;1.23;;;1.13;;
51718;SDS011;37795;53.236;5.704;2023-06-26T04:46:37;2.22;;;1.35;;
51718;SDS011;37795;53.236;5.704;2023-06-26T04:49:06;2.00;;;1.30;;
51718;SDS011;37795;53.236;5.704;2023-06-26T04:51:36;0.82;;;0.82;;
51718;SDS011;37795;53.236;5.704;2023-06-26T04:54:09;0.68;;;0.68;;
51718;SDS011;37795;53.236;5.704;2023-06-26T04:56:36;1.48;;;0.80;;
51718;SDS011;37795;53.236;5.704;2023-06-26T04:59:02;0.83;;;0.60;;
51718;SDS011;37795;53.236;5.704;2023-06-26T05:01:28;0.88;;;0.77;;
51718;SDS011;37795;53.236;5.704;2023-06-26T05:03:55;0.73;;;0.70;;
51718;SDS011;37795;53.236;5.704;2023-06-26T05:06:22;3.03;;;0.80;;
51718;SDS011;37795;53.236;5.704;2023-06-26T05:08:47;0.90;;;0.70;;
51718;SDS011;37795;53.236;5.704;2023-06-26T05:11:13;1.63;;;0.93;;
51718;SDS011;37795;53.236;5.704;2023-06-26T05:13:39;0.90;;;0.70;;
51718;SDS011;37795;53.236;5.704;2023-06-26T05:16:05;0.57;;;0.57;;
51718;SDS011;37795;53.236;5.704;2023-06-26T05:18:33;1.10;;;0.60;;
51718;SDS011;37795;53.236;5.704;2023-06-26T05:20:58;1.10;;;1.00;;
51718;SDS011;37795;53.236;5.704;2023-06-26T05:23:25;0.85;;;0.65;;
51718;SDS011;37795;53.236;5.704;2023-06-26T05:25:51;2.55;;;0.90;;
51718;SDS011;37795;53.236;5.704;2023-06-26T05:28:17;1.03;;;0.83;;
51718;SDS011;37795;53.236;5.704;2023-06-26T05:30:43;0.68;;;0.68;;
51718;SDS011;37795;53.236;5.704;2023-06-26T05:33:12;1.20;;;0.50;;
51718;SDS011;37795;53.236;5.704;2023-06-26T05:35:42;0.32;;;0.32;;
51718;SDS011;37795;53.236;5.704;2023-06-26T05:38:11;1.80;;;1.00;;
51718;SDS011;37795;53.236;5.704;2023-06-26T05:40:39;1.25;;;0.75;;
51718;SDS011;37795;53.236;5.704;2023-06-26T05:43:05;1.75;;;0.80;;
51718;SDS011;37795;53.236;5.704;2023-06-26T05:45:32;0.50;;;0.40;;
51718;SDS011;37795;53.236;5.704;2023-06-26T05:47:58;0.47;;;0.47;;
51718;SDS011;37795;53.236;5.704;2023-06-26T05:50:24;0.43;;;0.43;;
51718;SDS011;37795;53.236;5.704;2023-06-26T05:52:51;1.33;;;0.90;;
51718;SDS011;37795;53.236;5.704;2023-06-26T05:55:17;0.55;;;0.52;;
51718;SDS011;37795;53.236;5.704;2023-06-26T05:57:43;0.93;;;0.60;;
51718;SDS011;37795;53.236;5.704;2023-06-26T06:00:11;0.88;;;0.50;;
51718;SDS011;37795;53.236;5.704;2023-06-26T06:02:37;1.60;;;1.20;;
51718;SDS011;37795;53.236;5.704;2023-06-26T06:05:04;3.88;;;0.93;;
51718;SDS011;37795;53.236;5.704;2023-06-26T06:07:33;0.77;;;0.68;;
51718;SDS011;37795;53.236;5.704;2023-06-26T06:10:00;0.85;;;0.77;;
51718;SDS011;37795;53.236;5.704;2023-06-26T06:12:27;0.55;;;0.55;;
51718;SDS011;37795;53.236;5.704;2023-06-26T06:14:53;0.90;;;0.60;;
51718;SDS011;37795;53.236;5.704;2023-06-26T06:17:20;1.13;;;0.70;;
51718;SDS011;37795;53.236;5.704;2023-06-26T06:19:46;0.68;;;0.68;;
51718;SDS011;37795;53.236;5.704;2023-06-26T06:22:12;1.15;;;0.70;;
51718;SDS011;37795;53.236;5.704;2023-06-26T06:24:38;0.70;;;0.63;;
51718;SDS011;37795;53.236;5.704;2023-06-26T06:27:04;1.15;;;0.93;;
51718;SDS011;37795;53.236;5.704;2023-06-26T06:29:30;2.00;;;1.73;;
51718;SDS011;37795;53.236;5.704;2023-06-26T06:31:56;1.43;;;0.70;;
51718;SDS011;37795;53.236;5.704;2023-06-26T06:34:22;1.25;;;1.08;;
51718;SDS011;37795;53.236;5.704;2023-06-26T06:36:48;0.45;;;0.45;;
51718;SDS011;37795;53.236;5.704;2023-06-26T06:39:15;0.50;;;0.50;;
51718;SDS011;37795;53.236;5.704;2023-06-26T06:41:41;0.80;;;0.80;;
51718;SDS011;37795;53.236;5.704;2023-06-26T06:44:06;0.30;;;0.30;;
51718;SDS011;37795;53.236;5.704;2023-06-26T06:46:32;0.73;;;0.52;;
51718;SDS011;37795;53.236;5.704;2023-06-26T06:55:34;1.48;;;0.77;;
51718;SDS011;37795;53.236;5.704;2023-06-26T06:57:59;0.30;;;0.30;;
51718;SDS011;37795;53.236;5.704;2023-06-26T07:00:25;0.70;;;0.68;;
51718;SDS011;37795;53.236;5.704;2023-06-26T07:02:51;0.90;;;0.80;;
51718;SDS011;37795;53.236;5.704;2023-06-26T07:05:17;3.33;;;0.90;;
51718;SDS011;37795;53.236;5.704;2023-06-26T07:07:43;0.70;;;0.57;;
51718;SDS011;37795;53.236;5.704;2023-06-26T07:10:10;1.10;;;0.80;;
51718;SDS011;37795;53.236;5.704;2023-06-26T07:12:37;0.90;;;0.70;;
51718;SDS011;37795;53.236;5.704;2023-06-26T07:15:03;0.50;;;0.50;;
51718;SDS011;37795;53.236;5.704;2023-06-26T07:17:30;0.60;;;0.50;;
51718;SDS011;37795;53.236;5.704;2023-06-26T07:19:56;0.90;;;0.90;;
51718;SDS011;37795;53.236;5.704;2023-06-26T07:22:22;1.13;;;0.60;;
51718;SDS011;37795;53.236;5.704;2023-06-26T07:24:49;1.10;;;1.00;;
51718;SDS011;37795;53.236;5.704;2023-06-26T07:27:17;1.57;;;0.97;;
51718;SDS011;37795;53.236;5.704;2023-06-26T07:29:44;0.80;;;0.80;;
51718;SDS011;37795;53.236;5.704;2023-06-26T07:32:10;1.10;;;1.00;;
51718;SDS011;37795;53.236;5.704;2023-06-26T07:34:36;0.85;;;0.68;;
51718;SDS011;37795;53.236;5.704;2023-06-26T07:37:02;1.50;;;0.95;;
51718;SDS011;37795;53.236;5.704;2023-06-26T07:39:28;1.08;;;0.98;;
51718;SDS011;37795;53.236;5.704;2023-06-26T07:41:54;1.83;;;1.02;;
51718;SDS011;37795;53.236;5.704;2023-06-26T07:44:20;1.40;;;0.90;;
51718;SDS011;37795;53.236;5.704;2023-06-26T07:46:46;0.75;;;0.75;;
51718;SDS011;37795;53.236;5.704;2023-06-26T07:49:12;1.13;;;1.02;;
51718;SDS011;37795;53.236;5.704;2023-06-26T07:51:38;1.65;;;1.10;;
51718;SDS011;37795;53.236;5.704;2023-06-26T07:54:04;1.02;;;0.80;;
51718;SDS011;37795;53.236;5.704;2023-06-26T07:56:30;1.43;;;0.77;;
51718;SDS011;37795;53.236;5.704;2023-06-26T07:58:55;1.02;;;0.93;;
51718;SDS011;37795;53.236;5.704;2023-06-26T08:01:23;2.50;;;0.77;;
51718;SDS011;37795;53.236;5.704;2023-06-26T08:03:49;1.10;;;0.90;;
51718;SDS011;37795;53.236;5.704;2023-06-26T08:06:15;1.60;;;1.00;;
51718;SDS011;37795;53.236;5.704;2023-06-26T08:08:41;0.80;;;0.80;;
51718;SDS011;37795;53.236;5.704;2023-06-26T08:11:07;1.33;;;0.98;;
51718;SDS011;37795;53.236;5.704;2023-06-26T08:13:32;2.00;;;1.35;;
51718;SDS011;37795;53.236;5.704;2023-06-26T08:15:58;1.57;;;0.90;;
51718;SDS011;37795;53.236;5.704;2023-06-26T08:18:24;1.10;;;0.90;;
51718;SDS011;37795;53.236;5.704;2023-06-26T08:20:49;1.40;;;1.30;;
51718;SDS011;37795;53.236;5.704;2023-06-26T08:23:15;2.10;;;1.20;;
51718;SDS011;37795;53.236;5.704;2023-06-26T08:25:41;1.37;;;1.03;;
51718;SDS011;37795;53.236;5.704;2023-06-26T08:28:07;1.73;;;1.40;;
51718;SDS011;37795;53.236;5.704;2023-06-26T08:30:33;2.25;;;1.20;;
51718;SDS011;37795;53.236;5.704;2023-06-26T08:32:58;1.17;;;1.08;;
51718;SDS011;37795;53.236;5.704;2023-06-26T08:35:24;1.10;;;1.00;;
51718;SDS011;37795;53.236;5.704;2023-06-26T08:37:50;1.23;;;1.10;;
51718;SDS011;37795;53.236;5.704;2023-06-26T08:40:16;1.10;;;1.00;;
51718;SDS011;37795;53.236;5.704;2023-06-26T08:42:45;1.80;;;1.70;;
51718;SDS011;37795;53.236;5.704;2023-06-26T08:45:12;2.25;;;1.60;;
51718;SDS011;37795;53.236;5.704;2023-06-26T08:47:38;0.98;;;0.88;;
51718;SDS011;37795;53.236;5.704;2023-06-26T08:50:07;2.55;;;1.50;;
51718;SDS011;37795;53.236;5.704;2023-06-26T08:53:00;0.90;;;0.90;;
51718;SDS011;37795;53.236;5.704;2023-06-26T08:55:24;1.10;;;1.00;;
51718;SDS011;37795;53.236;5.704;2023-06-26T08:57:52;1.13;;;1.02;;
51718;SDS011;37795;53.236;5.704;2023-06-26T09:00:21;1.40;;;1.00;;
51718;SDS011;37795;53.236;5.704;2023-06-26T09:02:47;0.80;;;0.80;;
51718;SDS011;37795;53.236;5.704;2023-06-26T09:05:13;2.17;;;1.20;;
51718;SDS011;37795;53.236;5.704;2023-06-26T09:07:39;1.45;;;1.08;;
51718;SDS011;37795;53.236;5.704;2023-06-26T09:10:05;1.33;;;1.13;;
51718;SDS011;37795;53.236;5.704;2023-06-26T09:12:31;1.75;;;1.55;;
51718;SDS011;37795;53.236;5.704;2023-06-26T09:14:57;1.45;;;1.30;;
51718;SDS011;37795;53.236;5.704;2023-06-26T09:17:24;1.30;;;1.20;;
51718;SDS011;37795;53.236;5.704;2023-06-26T09:19:51;1.20;;;1.10;;
51718;SDS011;37795;53.236;5.704;2023-06-26T09:22:17;1.40;;;1.30;;
51718;SDS011;37795;53.236;5.704;2023-06-26T09:24:43;1.45;;;1.35;;
51718;SDS011;37795;53.236;5.704;2023-06-26T09:27:10;1.40;;;0.80;;
51718;SDS011;37795;53.236;5.704;2023-06-26T09:29:36;1.20;;;0.90;;
51718;SDS011;37795;53.236;5.704;2023-06-26T09:32:03;0.90;;;0.80;;
51718;SDS011;37795;53.236;5.704;2023-06-26T09:34:32;1.05;;;0.95;;
51718;SDS011;37795;53.236;5.704;2023-06-26T09:36:58;1.65;;;0.88;;
51718;SDS011;37795;53.236;5.704;2023-06-26T09:39:29;0.98;;;0.88;;
51718;SDS011;37795;53.236;5.704;2023-06-26T09:41:56;0.70;;;0.50;;
51718;SDS011;37795;53.236;5.704;2023-06-26T09:44:22;0.90;;;0.75;;
51718;SDS011;37795;53.236;5.704;2023-06-26T09:46:48;0.60;;;0.60;;
51718;SDS011;37795;53.236;5.704;2023-06-26T09:49:14;1.10;;;1.00;;
51718;SDS011;37795;53.236;5.704;2023-06-26T09:51:40;0.80;;;0.70;;
51718;SDS011;37795;53.236;5.704;2023-06-26T09:54:07;0.65;;;0.65;;
51718;SDS011;37795;53.236;5.704;2023-06-26T09:56:34;1.00;;;0.90;;
51718;SDS011;37795;53.236;5.704;2023-06-26T09:59:01;0.57;;;0.57;;
51718;SDS011;37795;53.236;5.704;2023-06-26T10:01:29;1.70;;;1.40;;
51718;SDS011;37795;53.236;5.704;2023-06-26T10:03:56;0.95;;;0.70;;
51718;SDS011;37795;53.236;5.704;2023-06-26T10:06:24;1.10;;;0.73;;
51718;SDS011;37795;53.236;5.704;2023-06-26T10:09:03;2.72;;;0.95;;
51718;SDS011;37795;53.236;5.704;2023-06-26T10:11:37;1.88;;;0.75;;
51718;SDS011;37795;53.236;5.704;2023-06-26T10:14:10;1.17;;;0.45;;
51718;SDS011;37795;53.236;5.704;2023-06-26T10:16:37;1.02;;;0.73;;
51718;SDS011;37795;53.236;5.704;2023-06-26T10:19:06;0.33;;;0.33;;
51718;SDS011;37795;53.236;5.704;2023-06-26T10:21:34;1.17;;;1.00;;
51718;SDS011;37795;53.236;5.704;2023-06-26T10:24:03;1.25;;;0.50;;
51718;SDS011;37795;53.236;5.704;2023-06-26T10:26:31;0.90;;;0.60;;
51718;SDS011;37795;53.236;5.704;2023-06-26T10:29:03;1.90;;;0.90;;
51718;SDS011;37795;53.236;5.704;2023-06-26T10:31:30;0.55;;;0.47;;
51718;SDS011;37795;53.236;5.704;2023-06-26T10:33:57;0.40;;;0.40;;
51718;SDS011;37795;53.236;5.704;2023-06-26T10:36:27;0.57;;;0.57;;
51718;SDS011;37795;53.236;5.704;2023-06-26T10:38:57;0.50;;;0.50;;
51718;SDS011;37795;53.236;5.704;2023-06-26T10:41:24;1.13;;;0.60;;
51718;SDS011;37795;53.236;5.704;2023-06-26T10:44:12;0.40;;;0.40;;
51718;SDS011;37795;53.236;5.704;2023-06-26T10:46:53;0.57;;;0.47;;
51718;SDS011;37795;53.236;5.704;2023-06-26T10:55:33;0.57;;;0.57;;
51718;SDS011;37795;53.236;5.704;2023-06-26T10:58:00;1.10;;;0.55;;
51718;SDS011;37795;53.236;5.704;2023-06-26T11:00:29;0.68;;;0.57;;
51718;SDS011;37795;53.236;5.704;2023-06-26T11:02:55;0.40;;;0.40;;
51718;SDS011;37795;53.236;5.704;2023-06-26T11:05:28;0.77;;;0.68;;
51718;SDS011;37795;53.236;5.704;2023-06-26T11:08:09;0.70;;;0.50;;
51718;SDS011;37795;53.236;5.704;2023-06-26T11:10:53;2.20;;;0.80;;
51718;SDS011;37795;53.236;5.704;2023-06-26T11:13:20;0.60;;;0.60;;
51718;SDS011;37795;53.236;5.704;2023-06-26T11:15:46;0.80;;;0.50;;
51718;SDS011;37795;53.236;5.704;2023-06-26T11:18:14;1.20;;;0.60;;
51718;SDS011;37795;53.236;5.704;2023-06-26T11:20:40;0.65;;;0.65;;
51718;SDS011;37795;53.236;5.704;2023-06-26T11:23:09;1.45;;;0.50;;
51718;SDS011;37795;53.236;5.704;2023-06-26T11:25:36;2.00;;;0.90;;
51718;SDS011;37795;53.236;5.704;2023-06-26T11:28:03;2.80;;;1.42;;
51718;SDS011;37795;53.236;5.704;2023-06-26T11:30:30;0.63;;;0.57;;
51718;SDS011;37795;53.236;5.704;2023-06-26T11:33:06;1.05;;;0.70;;
51718;SDS011;37795;53.236;5.704;2023-06-26T11:35:33;1.23;;;0.75;;
51718;SDS011;37795;53.236;5.704;2023-06-26T11:37:59;0.77;;;0.60;;
51718;SDS011;37795;53.236;5.704;2023-06-26T11:40:29;0.57;;;0.57;;
51718;SDS011;37795;53.236;5.704;2023-06-26T11:42:59;0.60;;;0.60;;
51718;SDS011;37795;53.236;5.704;2023-06-26T11:45:31;1.25;;;0.73;;
51718;SDS011;37795;53.236;5.704;2023-06-26T11:47:57;1.20;;;0.93;;
51718;SDS011;37795;53.236;5.704;2023-06-26T11:50:24;1.42;;;0.85;;
51718;SDS011;37795;53.236;5.704;2023-06-26T11:52:56;3.33;;;0.85;;
51718;SDS011;37795;53.236;5.704;2023-06-26T11:55:23;1.55;;;0.70;;
51718;SDS011;37795;53.236;5.704;2023-06-26T11:57:52;2.10;;;0.50;;
51718;SDS011;37795;53.236;5.704;2023-06-26T12:00:19;0.60;;;0.60;;
51718;SDS011;37795;53.236;5.704;2023-06-26T12:02:45;2.35;;;0.80;;
51718;SDS011;37795;53.236;5.704;2023-06-26T12:05:14;0.90;;;0.57;;
51718;SDS011;37795;53.236;5.704;2023-06-26T12:07:41;0.60;;;0.50;;
51718;SDS011;37795;53.236;5.704;2023-06-26T12:10:09;1.67;;;0.68;;
51718;SDS011;37795;53.236;5.704;2023-06-26T12:12:36;1.02;;;0.43;;
51718;SDS011;37795;53.236;5.704;2023-06-26T12:15:03;0.68;;;0.68;;
51718;SDS011;37795;53.236;5.704;2023-06-26T12:17:30;0.80;;;0.80;;
51718;SDS011;37795;53.236;5.704;2023-06-26T12:19:56;1.80;;;1.10;;
51718;SDS011;37795;53.236;5.704;2023-06-26T12:22:21;0.80;;;0.77;;
51718;SDS011;37795;53.236;5.704;2023-06-26T12:24:47;0.50;;;0.50;;
51718;SDS011;37795;53.236;5.704;2023-06-26T12:27:14;0.57;;;0.50;;
51718;SDS011;37795;53.236;5.704;2023-06-26T12:29:45;0.93;;;0.65;;
51718;SDS011;37795;53.236;5.704;2023-06-26T12:32:15;0.80;;;0.80;;
51718;SDS011;37795;53.236;5.704;2023-06-26T12:34:41;0.98;;;0.88;;
51718;SDS011;37795;53.236;5.704;2023-06-26T12:37:13;0.50;;;0.50;;
51718;SDS011;37795;53.236;5.704;2023-06-26T12:39:46;0.87;;;0.87;;
51718;SDS011;37795;53.236;5.704;2023-06-26T12:42:16;1.00;;;0.70;;
51718;SDS011;37795;53.236;5.704;2023-06-26T12:44:43;0.60;;;0.60;;
51718;SDS011;37795;53.236;5.704;2023-06-26T12:47:09;0.40;;;0.40;;
51718;SDS011;37795;53.236;5.704;2023-06-26T12:49:38;0.98;;;0.75;;
51718;SDS011;37795;53.236;5.704;2023-06-26T12:52:14;0.80;;;0.80;;
51718;SDS011;37795;53.236;5.704;2023-06-26T12:54:41;1.60;;;1.42;;
51718;SDS011;37795;53.236;5.704;2023-06-26T12:57:08;1.10;;;0.82;;
51718;SDS011;37795;53.236;5.704;2023-06-26T12:59:36;0.50;;;0.50;;
51718;SDS011;37795;53.236;5.704;2023-06-26T13:02:02;1.20;;;1.02;;
51718;SDS011;37795;53.236;5.704;2023-06-26T13:04:29;0.52;;;0.52;;
51718;SDS011;37795;53.236;5.704;2023-06-26T13:06:55;1.08;;;0.88;;
51718;SDS011;37795;53.236;5.704;2023-06-26T13:09:21;1.05;;;0.80;;
51718;SDS011;37795;53.236;5.704;2023-06-26T13:11:49;1.63;;;0.82;;
51718;SDS011;37795;53.236;5.704;2023-06-26T13:14:15;0.73;;;0.73;;
51718;SDS011;37795;53.236;5.704;2023-06-26T13:16:41;1.93;;;0.40;;
51718;SDS011;37795;53.236;5.704;2023-06-26T13:19:06;0.60;;;0.60;;
51718;SDS011;37795;53.236;5.704;2023-06-26T13:21:33;0.60;;;0.60;;
51718;SDS011;37795;53.236;5.704;2023-06-26T13:23:59;0.93;;;0.60;;
51718;SDS011;37795;53.236;5.704;2023-06-26T13:26:25;1.10;;;1.00;;
51718;SDS011;37795;53.236;5.704;2023-06-26T13:28:51;1.10;;;0.60;;
51718;SDS011;37795;53.236;5.704;2023-06-26T13:31:17;0.60;;;0.60;;
51718;SDS011;37795;53.236;5.704;2023-06-26T13:33:44;1.50;;;0.68;;
51718;SDS011;37795;53.236;5.704;2023-06-26T13:36:11;1.40;;;0.82;;
51718;SDS011;37795;53.236;5.704;2023-06-26T13:38:37;0.73;;;0.73;;
51718;SDS011;37795;53.236;5.704;2023-06-26T13:41:02;0.70;;;0.60;;
51718;SDS011;37795;53.236;5.704;2023-06-26T13:43:28;0.60;;;0.60;;
51718;SDS011;37795;53.236;5.704;2023-06-26T13:45:55;0.70;;;0.68;;
51718;SDS011;37795;53.236;5.704;2023-06-26T13:48:21;0.70;;;0.70;;
51718;SDS011;37795;53.236;5.704;2023-06-26T13:50:49;1.80;;;1.55;;
51718;SDS011;37795;53.236;5.704;2023-06-26T13:53:15;0.40;;;0.40;;
51718;SDS011;37795;53.236;5.704;2023-06-26T13:55:41;0.50;;;0.50;;
51718;SDS011;37795;53.236;5.704;2023-06-26T13:58:07;0.77;;;0.77;;
51718;SDS011;37795;53.236;5.704;2023-06-26T14:00:33;0.70;;;0.60;;
51718;SDS011;37795;53.236;5.704;2023-06-26T14:03:00;0.50;;;0.45;;
51718;SDS011;37795;53.236;5.704;2023-06-26T14:05:28;0.40;;;0.40;;
51718;SDS011;37795;53.236;5.704;2023-06-26T14:07:55;2.67;;;0.80;;
51718;SDS011;37795;53.236;5.704;2023-06-26T14:10:21;0.80;;;0.80;;
51718;SDS011;37795;53.236;5.704;2023-06-26T14:12:47;0.40;;;0.40;;
51718;SDS011;37795;53.236;5.704;2023-06-26T14:15:13;0.50;;;0.50;;
51718;SDS011;37795;53.236;5.704;2023-06-26T14:17:39;0.63;;;0.63;;
51718;SDS011;37795;53.236;5.704;2023-06-26T14:20:06;0.77;;;0.70;;
51718;SDS011;37795;53.236;5.704;2023-06-26T14:22:38;0.50;;;0.50;;
51718;SDS011;37795;53.236;5.704;2023-06-26T14:25:05;0.55;;;0.55;;
51718;SDS011;37795;53.236;5.704;2023-06-26T14:27:31;0.85;;;0.85;;
51718;SDS011;37795;53.236;5.704;2023-06-26T14:29:57;0.82;;;0.82;;
51718;SDS011;37795;53.236;5.704;2023-06-26T14:32:23;0.70;;;0.60;;
51718;SDS011;37795;53.236;5.704;2023-06-26T14:34:49;1.08;;;0.80;;
51718;SDS011;37795;53.236;5.704;2023-06-26T14:37:14;1.00;;;0.57;;
51718;SDS011;37795;53.236;5.704;2023-06-26T14:39:41;0.70;;;0.70;;
51718;SDS011;37795;53.236;5.704;2023-06-26T14:42:07;1.07;;;0.57;;
51718;SDS011;37795;53.236;5.704;2023-06-26T14:44:33;0.83;;;0.70;;
51718;SDS011;37795;53.236;5.704;2023-06-26T14:46:58;0.50;;;0.50;;
51718;SDS011;37795;53.236;5.704;2023-06-26T14:49:24;0.47;;;0.47;;
51718;SDS011;37795;53.236;5.704;2023-06-26T14:51:49;2.03;;;0.93;;
51718;SDS011;37795;53.236;5.704;2023-06-26T14:54:15;0.63;;;0.63;;
51718;SDS011;37795;53.236;5.704;2023-06-26T14:56:41;0.80;;;0.70;;
51718;SDS011;37795;53.236;5.704;2023-06-26T14:59:09;1.00;;;0.85;;
51718;SDS011;37795;53.236;5.704;2023-06-26T15:01:35;0.90;;;0.65;;
51718;SDS011;37795;53.236;5.704;2023-06-26T15:04:01;0.70;;;0.70;;
51718;SDS011;37795;53.236;5.704;2023-06-26T15:06:26;0.77;;;0.63;;
51718;SDS011;37795;53.236;5.704;2023-06-26T15:08:52;1.13;;;0.80;;